createdAt,value
2018-09-14T00:00:58.405Z,88.60
2018-09-14T00:01:58.403Z,88.60
2018-09-14T00:02:58.395Z,88.60
2018-09-14T00:03:58.383Z,88.70
2018-09-14T00:04:58.383Z,88.70
2018-09-14T00:05:58.366Z,88.60
2018-09-14T00:06:58.358Z,88.70
2018-09-14T00:07:58.355Z,88.89
2018-09-14T00:08:58.345Z,88.51
2018-09-14T00:09:58.329Z,88.70
2018-09-14T00:10:58.323Z,89.08
2018-09-14T00:11:58.319Z,89.04
2018-09-14T00:12:58.303Z,89.08
2018-09-14T00:13:58.295Z,88.60
2018-09-14T00:14:58.282Z,88.51
2018-09-14T00:15:58.277Z,88.60
2018-09-14T00:16:58.271Z,88.51
2018-09-14T00:17:58.261Z,88.60
2018-09-14T00:18:58.253Z,88.41
2018-09-14T00:19:58.241Z,88.79
2018-09-14T00:20:58.240Z,88.41
2018-09-14T00:21:58.225Z,88.22
2018-09-14T00:22:58.215Z,87.93
2018-09-14T00:23:58.200Z,87.93
2018-09-14T00:24:58.201Z,88.60
2018-09-14T00:25:58.194Z,88.31
2018-09-14T00:26:58.182Z,88.51
2018-09-14T00:27:58.171Z,88.12
2018-09-14T00:28:58.164Z,87.84
2018-09-14T00:29:58.154Z,88.12
2018-09-14T00:30:58.148Z,88.02
2018-09-14T00:31:58.135Z,88.51
2018-09-14T00:32:58.131Z,88.02
2018-09-14T00:33:58.120Z,88.60
2018-09-14T00:34:58.110Z,88.70
2018-09-14T00:35:58.101Z,88.51
2018-09-14T00:36:58.093Z,88.12
2018-09-14T00:37:58.078Z,88.51
2018-09-14T00:38:58.075Z,88.31
2018-09-14T00:39:58.065Z,88.22
2018-09-14T00:40:58.059Z,88.51
2018-09-14T00:41:58.044Z,87.84
2018-09-14T00:42:58.036Z,87.45
2018-09-14T00:43:58.033Z,87.64
2018-09-14T00:44:58.024Z,87.74
2018-09-14T00:45:58.011Z,87.64
2018-09-14T00:46:58.006Z,87.64
2018-09-14T00:47:57.996Z,87.93
2018-09-14T00:48:57.990Z,87.26
2018-09-14T00:49:57.978Z,87.26
2018-09-14T00:50:57.968Z,86.58
2018-09-14T00:51:57.954Z,86.78
2018-09-14T00:52:57.951Z,86.40
2018-09-14T00:53:57.943Z,86.49
2018-09-14T00:54:57.933Z,86.40
2018-09-14T00:55:57.921Z,86.78
2018-09-14T00:56:57.916Z,86.68
2018-09-14T00:57:57.906Z,85.72
2018-09-14T00:58:57.898Z,85.82
2018-09-14T00:59:57.892Z,85.92
2018-09-14T01:00:57.876Z,86.25
2018-09-14T01:01:57.869Z,85.86
2018-09-14T01:02:57.861Z,85.28
2018-09-14T01:03:57.849Z,85.28
2018-09-14T01:04:57.847Z,84.42
2018-09-14T01:05:57.837Z,85.10
2018-09-14T01:06:57.825Z,85.44
2018-09-14T01:07:57.816Z,86.68
2018-09-14T01:08:57.808Z,86.40
2018-09-14T01:09:57.794Z,87.16
2018-09-14T01:10:57.794Z,87.84
2018-09-14T01:11:57.784Z,87.26
2018-09-14T01:12:57.780Z,87.84
2018-09-14T01:13:57.766Z,87.64
2018-09-14T01:14:57.751Z,88.12
2018-09-14T01:15:57.746Z,88.22
2018-09-14T01:16:57.741Z,88.12
2018-09-14T01:17:57.725Z,87.45
2018-09-14T01:18:57.719Z,87.64
2018-09-14T01:19:57.711Z,87.16
2018-09-14T01:20:57.703Z,87.07
2018-09-14T01:21:57.695Z,87.26
2018-09-14T01:22:57.681Z,87.35
2018-09-14T01:23:57.679Z,86.78
2018-09-14T01:24:57.668Z,86.78
2018-09-14T01:25:57.661Z,86.40
2018-09-14T01:26:57.652Z,86.30
2018-09-14T01:27:57.653Z,86.30
2018-09-14T01:28:57.631Z,86.78
2018-09-14T01:29:57.618Z,86.40
2018-09-14T01:30:57.615Z,86.58
2018-09-14T01:31:57.605Z,86.21
2018-09-14T01:32:57.597Z,86.49
2018-09-14T01:33:57.586Z,86.58
2018-09-14T01:34:57.582Z,86.49
2018-09-14T01:35:57.576Z,86.78
2018-09-14T01:36:57.560Z,86.40
2018-09-14T01:37:57.551Z,86.58
2018-09-14T01:38:57.545Z,86.40
2018-09-14T01:39:57.539Z,85.82
2018-09-14T01:40:57.523Z,86.49
2018-09-14T01:41:57.512Z,86.49
2018-09-14T01:42:57.515Z,86.49
2018-09-14T01:43:57.501Z,86.49
2018-09-14T01:44:57.491Z,86.49
2018-09-14T01:45:57.480Z,85.92
2018-09-14T01:46:57.470Z,85.82
2018-09-14T01:47:57.462Z,86.15
2018-09-14T01:48:57.457Z,85.86
2018-09-14T01:49:57.447Z,86.15
2018-09-14T01:50:57.437Z,85.67
2018-09-14T01:51:57.433Z,85.67
2018-09-14T01:52:57.417Z,85.19
2018-09-14T01:53:57.419Z,85.67
2018-09-14T01:54:57.407Z,86.05
2018-09-14T01:55:57.389Z,85.67
2018-09-14T01:56:57.383Z,85.86
2018-09-14T01:57:57.378Z,85.19
2018-09-14T01:58:57.369Z,84.81
2018-09-14T01:59:57.357Z,85.10
2018-09-14T02:00:57.350Z,85.44
2018-09-14T02:01:57.347Z,85.53
2018-09-14T02:02:57.336Z,86.11
2018-09-14T02:03:57.329Z,86.68
2018-09-14T02:04:57.315Z,86.83
2018-09-14T02:05:57.307Z,87.98
2018-09-14T02:06:57.298Z,88.56
2018-09-14T02:07:57.293Z,88.37
2018-09-14T02:08:57.283Z,89.04
2018-09-14T02:09:57.272Z,89.23
2018-09-14T02:10:57.261Z,89.13
2018-09-14T02:11:57.250Z,89.04
2018-09-14T02:12:57.246Z,88.46
2018-09-14T02:13:57.233Z,89.04
2018-09-14T02:14:57.227Z,89.04
2018-09-14T02:15:57.224Z,88.65
2018-09-14T02:16:57.211Z,89.04
2018-09-14T02:17:57.200Z,88.65
2018-09-14T02:18:57.189Z,88.65
2018-09-14T02:19:57.179Z,88.37
2018-09-14T02:20:57.169Z,88.65
2018-09-14T02:21:57.164Z,88.75
2018-09-14T02:22:57.156Z,88.65
2018-09-14T02:23:57.147Z,88.65
2018-09-14T02:24:57.139Z,88.94
2018-09-14T02:25:57.131Z,88.75
2018-09-14T02:26:57.121Z,88.22
2018-09-14T02:27:57.110Z,88.31
2018-09-14T02:28:57.104Z,88.89
2018-09-14T02:29:57.096Z,87.84
2018-09-14T02:30:57.086Z,87.93
2018-09-14T02:31:57.077Z,88.31
2018-09-14T02:32:57.066Z,88.02
2018-09-14T02:33:57.061Z,87.45
2018-09-14T02:34:57.050Z,87.64
2018-09-14T02:35:57.046Z,87.74
2018-09-14T02:36:57.026Z,87.64
2018-09-14T02:37:57.021Z,87.45
2018-09-14T02:38:57.011Z,87.64
2018-09-14T02:39:57.003Z,87.07
2018-09-14T02:40:56.995Z,87.45
2018-09-14T02:41:56.981Z,87.35
2018-09-14T02:42:56.977Z,86.88
2018-09-14T02:43:56.962Z,87.07
2018-09-14T02:44:56.957Z,86.88
2018-09-14T02:45:56.952Z,86.97
2018-09-14T02:46:56.946Z,86.68
2018-09-14T02:47:56.930Z,86.58
2018-09-14T02:48:56.926Z,86.58
2018-09-14T02:49:56.913Z,86.40
2018-09-14T02:50:56.908Z,86.58
2018-09-14T02:51:56.898Z,86.88
2018-09-14T02:52:56.889Z,86.78
2018-09-14T02:53:56.877Z,86.21
2018-09-14T02:54:56.871Z,86.68
2018-09-14T02:55:56.867Z,85.92
2018-09-14T02:56:56.853Z,85.72
2018-09-14T02:57:56.842Z,85.63
2018-09-14T02:58:56.834Z,85.92
2018-09-14T02:59:56.886Z,86.49
2018-09-14T03:00:56.820Z,86.78
2018-09-14T03:01:56.810Z,86.68
2018-09-14T03:02:56.800Z,86.97
2018-09-14T03:03:56.794Z,87.26
2018-09-14T03:04:56.779Z,87.26
2018-09-14T03:05:56.775Z,86.88
2018-09-14T03:06:56.766Z,87.07
2018-09-14T03:07:56.763Z,87.35
2018-09-14T03:08:56.754Z,87.84
2018-09-14T03:09:56.739Z,87.74
2018-09-14T03:10:56.730Z,87.64
2018-09-14T03:11:56.716Z,87.45
2018-09-14T03:12:56.712Z,88.12
2018-09-14T03:13:56.702Z,88.31
2018-09-14T03:14:56.693Z,88.31
2018-09-14T03:15:56.685Z,88.75
2018-09-14T03:16:56.677Z,88.75
2018-09-14T03:17:56.672Z,88.56
2018-09-14T03:18:56.655Z,88.94
2018-09-14T03:19:56.649Z,88.84
2018-09-14T03:20:56.646Z,89.04
2018-09-14T03:21:56.634Z,89.13
2018-09-14T03:22:56.623Z,89.32
2018-09-14T03:23:56.609Z,88.94
2018-09-14T03:24:56.606Z,88.65
2018-09-14T03:25:56.602Z,88.65
2018-09-14T03:26:56.584Z,89.13
2018-09-14T03:27:56.579Z,88.84
2018-09-14T03:28:56.572Z,88.56
2018-09-14T03:29:56.558Z,88.46
2018-09-14T03:30:56.544Z,88.75
2018-09-14T03:31:56.542Z,88.65
2018-09-14T03:32:56.533Z,88.65
2018-09-14T03:33:56.525Z,88.46
2018-09-14T03:34:56.517Z,88.46
2018-09-14T03:35:56.503Z,88.46
2018-09-14T03:36:56.495Z,88.46
2018-09-14T03:37:56.482Z,87.98
2018-09-14T03:38:56.482Z,87.98
2018-09-14T03:39:56.470Z,88.17
2018-09-14T03:40:56.461Z,88.27
2018-09-14T03:41:56.450Z,88.70
2018-09-14T03:42:56.445Z,88.27
2018-09-14T03:43:56.433Z,88.60
2018-09-14T03:44:56.424Z,88.41
2018-09-14T03:45:56.413Z,88.31
2018-09-14T03:46:56.405Z,88.31
2018-09-14T03:47:56.393Z,87.84
2018-09-14T03:48:56.390Z,88.12
2018-09-14T03:49:56.379Z,88.17
2018-09-14T03:50:56.376Z,88.60
2018-09-14T03:51:56.360Z,88.60
2018-09-14T03:52:56.356Z,88.51
2018-09-14T03:53:56.347Z,88.22
2018-09-14T03:54:56.333Z,88.02
2018-09-14T03:55:56.326Z,87.64
2018-09-14T03:56:56.313Z,87.64
2018-09-14T03:57:56.308Z,87.45
2018-09-14T03:58:56.293Z,88.12
2018-09-14T03:59:56.291Z,88.22
2018-09-14T04:00:56.285Z,87.84
2018-09-14T04:01:56.269Z,87.45
2018-09-14T04:02:56.266Z,87.84
2018-09-14T04:03:56.255Z,86.97
2018-09-14T04:04:56.244Z,87.26
2018-09-14T04:05:56.230Z,87.12
2018-09-14T04:06:56.227Z,87.60
2018-09-14T04:07:56.307Z,87.41
2018-09-14T04:08:56.212Z,87.98
2018-09-14T04:09:56.198Z,88.08
2018-09-14T04:10:56.192Z,88.56
2018-09-14T04:11:56.183Z,87.94
2018-09-14T04:12:56.176Z,88.03
2018-09-14T04:13:56.163Z,88.42
2018-09-14T04:14:56.155Z,89.18
2018-09-14T04:15:56.144Z,88.90
2018-09-14T04:16:56.138Z,89.57
2018-09-14T04:17:56.132Z,89.18
2018-09-14T04:18:56.124Z,89.57
2018-09-14T04:19:56.107Z,89.57
2018-09-14T04:20:56.102Z,89.76
2018-09-14T04:21:56.094Z,90.05
2018-09-14T04:22:56.085Z,89.76
2018-09-14T04:23:56.071Z,89.66
2018-09-14T04:24:56.066Z,89.37
2018-09-14T04:25:56.059Z,89.57
2018-09-14T04:26:56.047Z,89.76
2018-09-14T04:27:56.042Z,89.57
2018-09-14T04:28:56.030Z,89.57
2018-09-14T04:29:56.020Z,89.76
2018-09-14T04:30:56.010Z,90.33
2018-09-14T04:31:56.000Z,90.33
2018-09-14T04:32:55.993Z,90.43
2018-09-14T04:33:55.982Z,90.81
2018-09-14T04:34:55.974Z,91.77
2018-09-14T04:35:55.971Z,92.15
2018-09-14T04:36:55.955Z,92.58
2018-09-14T04:37:55.954Z,92.58
2018-09-14T04:38:55.931Z,92.40
2018-09-14T04:39:55.930Z,92.97
2018-09-14T04:40:55.916Z,92.87
2018-09-14T04:41:55.908Z,92.97
2018-09-14T04:42:55.900Z,92.73
2018-09-14T04:43:55.891Z,93.40
2018-09-14T04:44:55.881Z,92.06
2018-09-14T04:45:55.875Z,92.06
2018-09-14T04:46:55.866Z,92.35
2018-09-14T04:47:55.847Z,92.15
2018-09-14T04:48:55.841Z,92.06
2018-09-14T04:49:55.837Z,91.58
2018-09-14T04:50:55.828Z,92.15
2018-09-14T04:51:55.814Z,92.06
2018-09-14T04:52:55.806Z,92.25
2018-09-14T04:53:55.797Z,92.15
2018-09-14T04:54:55.786Z,92.73
2018-09-14T04:55:55.775Z,92.15
2018-09-14T04:56:55.776Z,91.96
2018-09-14T04:57:55.757Z,91.58
2018-09-14T04:58:55.750Z,91.58
2018-09-14T04:59:55.742Z,91.77
2018-09-14T05:00:55.730Z,91.58
2018-09-14T05:01:55.716Z,91.10
2018-09-14T05:02:55.718Z,91.00
2018-09-14T05:03:55.705Z,90.81
2018-09-14T05:04:55.689Z,91.00
2018-09-14T05:05:55.682Z,90.91
2018-09-14T05:06:55.675Z,91.39
2018-09-14T05:07:55.666Z,90.91
2018-09-14T05:08:55.666Z,91.00
2018-09-14T05:09:55.679Z,90.53
2018-09-14T05:10:55.638Z,91.00
2018-09-14T05:11:55.634Z,91.00
2018-09-14T05:12:55.623Z,90.72
2018-09-14T05:13:55.628Z,90.76
2018-09-14T05:14:55.608Z,90.05
2018-09-14T05:15:55.592Z,89.95
2018-09-14T05:16:55.583Z,90.72
2018-09-14T05:17:55.570Z,90.72
2018-09-14T05:18:55.562Z,90.33
2018-09-14T05:19:55.556Z,90.57
2018-09-14T05:20:55.550Z,90.62
2018-09-14T05:21:55.531Z,90.53
2018-09-14T05:22:55.528Z,89.95
2018-09-14T05:23:55.552Z,90.28
2018-09-14T05:24:55.519Z,89.42
2018-09-14T05:25:55.504Z,89.28
2018-09-14T05:26:55.496Z,88.94
2018-09-14T05:27:55.482Z,89.13
2018-09-14T05:28:55.474Z,89.04
2018-09-14T05:29:55.475Z,88.94
2018-09-14T05:30:55.455Z,89.23
2018-09-14T05:31:55.444Z,89.80
2018-09-14T05:32:55.440Z,90.28
2018-09-14T05:33:55.428Z,90.09
2018-09-14T05:34:55.417Z,90.14
2018-09-14T05:35:55.401Z,90.05
2018-09-14T05:36:55.399Z,90.72
2018-09-14T05:37:55.387Z,90.72
2018-09-14T05:38:55.386Z,90.91
2018-09-14T05:39:55.373Z,90.91
2018-09-14T05:40:55.360Z,90.91
2018-09-14T05:41:55.404Z,90.91
2018-09-14T05:42:55.359Z,90.91
2018-09-14T05:43:55.460Z,90.72
2018-09-14T05:44:55.324Z,91.00
2018-09-14T05:45:55.318Z,91.39
2018-09-14T05:46:55.308Z,91.29
2018-09-14T05:47:55.296Z,91.19
2018-09-14T05:48:55.287Z,90.81
2018-09-14T05:49:55.278Z,90.81
2018-09-14T05:50:55.271Z,90.81
2018-09-14T05:51:55.265Z,91.39
2018-09-14T05:52:55.251Z,90.62
2018-09-14T05:53:55.244Z,90.72
2018-09-14T05:54:55.234Z,90.81
2018-09-14T05:55:55.232Z,91.00
2018-09-14T05:56:55.215Z,90.33
2018-09-14T05:57:55.202Z,90.33
2018-09-14T05:58:55.195Z,90.47
2018-09-14T05:59:55.191Z,89.71
2018-09-14T06:00:55.178Z,89.61
2018-09-14T06:01:55.173Z,89.71
2018-09-14T06:02:55.159Z,89.80
2018-09-14T06:03:55.152Z,90.14
2018-09-14T06:04:55.141Z,89.86
2018-09-14T06:05:55.128Z,90.38
2018-09-14T06:06:55.118Z,90.53
2018-09-14T06:07:55.115Z,90.81
2018-09-14T06:08:55.108Z,91.10
2018-09-14T06:09:55.090Z,91.10
2018-09-14T06:10:55.082Z,91.19
2018-09-14T06:11:55.079Z,91.00
2018-09-14T06:12:55.071Z,91.19
2018-09-14T06:13:55.053Z,91.10
2018-09-14T06:14:55.052Z,91.19
2018-09-14T06:15:55.040Z,90.81
2018-09-14T06:16:55.094Z,91.19
2018-09-14T06:17:55.020Z,91.19
2018-09-14T06:18:55.010Z,91.39
2018-09-14T06:19:55.001Z,91.86
2018-09-14T06:20:54.993Z,91.10
2018-09-14T06:21:54.983Z,91.19
2018-09-14T06:22:55.027Z,91.29
2018-09-14T06:23:54.962Z,91.39
2018-09-14T06:24:54.954Z,91.19
2018-09-14T06:25:54.949Z,91.14
2018-09-14T06:26:54.936Z,91.10
2018-09-14T06:27:54.927Z,90.67
2018-09-14T06:28:54.922Z,91.10
2018-09-14T06:29:54.905Z,91.00
2018-09-14T06:30:54.900Z,91.39
2018-09-14T06:31:54.890Z,92.35
2018-09-14T06:32:54.886Z,91.96
2018-09-14T06:33:54.872Z,92.44
2018-09-14T06:34:54.862Z,93.11
2018-09-14T06:35:54.854Z,93.11
2018-09-14T06:36:54.849Z,92.54
2018-09-14T06:37:54.833Z,93.11
2018-09-14T06:38:54.824Z,92.63
2018-09-14T06:39:54.826Z,93.11
2018-09-14T06:40:54.813Z,93.11
2018-09-14T06:41:54.795Z,93.11
2018-09-14T06:42:54.790Z,92.44
2018-09-14T06:43:54.783Z,92.63
2018-09-14T06:44:54.773Z,92.35
2018-09-14T06:45:54.764Z,92.82
2018-09-14T06:46:54.748Z,92.54
2018-09-14T06:47:54.744Z,92.15
2018-09-14T06:48:54.738Z,92.54
2018-09-14T06:49:54.728Z,92.15
2018-09-14T06:50:54.711Z,92.15
2018-09-14T06:51:54.711Z,92.35
2018-09-14T06:52:54.691Z,92.44
2018-09-14T06:53:54.689Z,91.96
2018-09-14T06:54:54.683Z,92.06
2018-09-14T06:55:54.667Z,91.86
2018-09-14T06:56:54.661Z,91.49
2018-09-14T06:57:54.653Z,91.67
2018-09-14T06:58:54.641Z,91.49
2018-09-14T06:59:54.624Z,91.91
2018-09-14T07:00:54.624Z,91.19
2018-09-14T07:01:54.614Z,91.77
2018-09-14T07:25:22.565Z,90.38
2018-09-14T07:25:43.473Z,90.14
2018-09-14T07:27:37.701Z,89.85
2018-09-14T07:28:37.680Z,90.14
2018-09-14T07:30:33.185Z,87.84
2018-09-14T07:31:33.217Z,88.60
2018-09-14T07:33:28.493Z,88.12
2018-09-14T07:34:28.466Z,87.74
2018-09-14T07:36:23.405Z,87.64
2018-09-14T07:37:23.292Z,88.65
2018-09-14T07:39:18.663Z,88.65
2018-09-14T07:40:18.637Z,87.59
2018-09-14T07:42:13.499Z,86.63
2018-09-14T07:43:13.470Z,85.77
2018-09-14T07:45:08.332Z,85.86
2018-09-14T07:46:08.304Z,84.56
2018-09-14T07:48:04.192Z,84.47
2018-09-14T07:49:04.200Z,84.18
2018-09-14T07:50:59.663Z,83.41
2018-09-14T07:51:59.628Z,83.41
2018-09-14T07:53:54.527Z,83.70
2018-09-14T07:54:54.467Z,83.70
2018-09-14T07:56:49.343Z,82.97
2018-09-14T07:57:49.314Z,81.82
2018-09-14T07:59:44.190Z,80.96
2018-09-14T08:00:44.158Z,81.34
2018-09-14T08:02:40.066Z,81.05
2018-09-14T08:03:40.013Z,80.99
2018-09-14T08:05:35.884Z,81.67
2018-09-14T08:06:35.860Z,82.15
2018-09-14T08:08:30.727Z,81.48
2018-09-14T08:09:30.702Z,80.71
2018-09-14T08:11:25.602Z,80.90
2018-09-14T08:12:25.544Z,81.38
2018-09-14T08:14:20.415Z,81.05
2018-09-14T08:15:20.392Z,81.92
2018-09-14T08:17:15.285Z,82.05
2018-09-14T08:18:15.249Z,81.19
2018-09-14T08:20:10.144Z,81.09
2018-09-14T08:21:10.116Z,80.51
2018-09-14T08:23:04.985Z,80.32
2018-09-14T08:24:04.957Z,81.15
2018-09-14T08:26:01.336Z,81.67
2018-09-14T08:27:01.323Z,80.99
2018-09-14T08:28:57.176Z,81.04
2018-09-14T08:29:57.125Z,81.23
2018-09-14T08:31:52.002Z,79.30
2018-09-14T08:32:51.977Z,77.86
2018-09-14T08:34:46.853Z,77.81
2018-09-14T08:35:46.825Z,76.94
2018-09-14T08:37:41.207Z,75.34
2018-09-14T08:38:41.175Z,76.31
2018-09-14T08:40:37.188Z,76.88
2018-09-14T08:41:37.024Z,75.73
2018-09-14T08:43:30.965Z,75.05
2018-09-14T08:44:30.943Z,74.86
2018-09-14T08:46:44.856Z,74.86
2018-09-14T08:47:44.810Z,75.24
2018-09-14T08:49:39.684Z,74.29
2018-09-14T08:50:39.666Z,74.38
2018-09-14T08:52:35.063Z,74.71
2018-09-14T08:53:35.013Z,74.71
2018-09-14T08:55:29.880Z,73.03
2018-09-14T08:56:29.857Z,72.26
2018-09-14T08:58:24.755Z,72.94
2018-09-14T08:59:24.707Z,74.38
2018-09-14T09:01:19.582Z,71.59
2018-09-14T09:02:19.550Z,71.49
2018-09-14T09:04:15.226Z,71.49
2018-09-14T09:05:15.182Z,73.32
2018-09-14T09:07:11.098Z,72.45
2018-09-14T09:08:11.032Z,73.55
2018-09-14T09:10:05.150Z,73.36
2018-09-14T09:11:05.127Z,72.11
2018-09-14T09:12:59.370Z,72.78
2018-09-14T09:13:59.346Z,72.01
2018-09-14T09:15:55.220Z,72.72
2018-09-14T09:16:55.200Z,72.30
2018-09-14T09:18:49.368Z,72.43
2018-09-14T09:19:49.364Z,71.78
2018-09-14T09:21:44.302Z,74.19
2018-09-14T09:22:44.202Z,74.29
2018-09-14T09:24:39.074Z,73.94
2018-09-14T09:25:39.042Z,73.36
2018-09-14T09:27:34.929Z,72.59
2018-09-14T09:28:34.907Z,73.26
2018-09-14T09:30:29.796Z,71.40
2018-09-14T09:31:29.759Z,72.01
2018-09-14T09:33:25.619Z,72.20
2018-09-14T09:34:25.594Z,72.30
2018-09-14T09:36:21.282Z,71.66
2018-09-14T09:37:21.254Z,71.66
2018-09-14T09:39:16.211Z,72.18
2018-09-14T09:40:15.797Z,71.98
2018-09-14T09:42:10.696Z,68.90
2018-09-14T09:43:10.711Z,69.54
2018-09-14T09:45:05.516Z,70.12
2018-09-14T09:46:05.494Z,69.99
2018-09-14T09:48:01.382Z,68.51
2018-09-14T09:49:01.352Z,68.80
2018-09-14T09:50:56.265Z,69.95
2018-09-14T09:51:56.210Z,69.95
2018-09-14T09:53:51.588Z,70.53
2018-09-14T09:54:51.560Z,71.20
2018-09-14T09:56:46.567Z,71.97
2018-09-14T09:57:46.407Z,71.88
2018-09-14T09:59:41.285Z,72.20
2018-09-14T10:00:41.271Z,72.63
2018-09-14T10:02:36.143Z,71.56
2018-09-14T10:03:36.160Z,70.70
2018-09-14T10:05:31.001Z,70.44
2018-09-14T10:06:30.972Z,69.67
2018-09-14T10:08:25.854Z,68.87
2018-09-14T10:09:25.832Z,68.87
2018-09-14T10:11:21.415Z,67.52
2018-09-14T10:12:21.392Z,67.52
2018-09-14T10:14:16.293Z,68.77
2018-09-14T10:15:16.242Z,68.68
2018-09-14T10:17:11.126Z,69.25
2018-09-14T10:18:11.098Z,69.64
2018-09-14T10:20:06.005Z,70.21
2018-09-14T10:21:05.979Z,69.51
2018-09-14T10:23:01.419Z,70.12
2018-09-14T10:24:01.396Z,70.31
2018-09-14T10:26:14.895Z,69.45
2018-09-14T10:27:14.871Z,68.77
2018-09-14T10:29:10.344Z,68.48
2018-09-14T10:30:10.321Z,69.15
2018-09-14T10:32:05.202Z,68.44
2018-09-14T10:33:05.176Z,68.84
2018-09-14T10:35:00.163Z,70.28
2018-09-14T10:36:00.013Z,70.56
2018-09-14T10:37:54.887Z,70.86
2018-09-14T10:38:54.866Z,70.37
2018-09-14T10:40:49.793Z,70.62
2018-09-14T10:41:49.725Z,70.53
2018-09-14T10:43:45.103Z,70.72
2018-09-14T10:44:45.075Z,72.26
2018-09-14T10:46:39.963Z,72.36
2018-09-14T10:47:39.929Z,70.92
2018-09-14T10:49:34.821Z,71.49
2018-09-14T10:50:34.793Z,71.30
2018-09-14T10:52:30.256Z,72.78
2018-09-14T10:53:29.643Z,71.91
2018-09-14T10:55:24.606Z,70.37
2018-09-14T10:56:24.488Z,70.56
2018-09-14T10:58:19.367Z,70.76
2018-09-14T10:59:19.347Z,70.41
2018-09-14T11:01:35.072Z,70.41
2018-09-14T11:02:35.042Z,71.08
2018-09-14T11:04:29.956Z,70.56
2018-09-14T11:05:29.916Z,71.28
2018-09-14T11:07:25.800Z,70.37
2018-09-14T11:08:25.757Z,70.21
2018-09-14T11:10:19.786Z,70.28
2018-09-14T11:11:19.759Z,70.18
2018-09-14T11:13:14.629Z,70.37
2018-09-14T11:14:14.612Z,71.24
2018-09-14T11:16:09.504Z,71.04
2018-09-14T11:17:09.454Z,71.72
2018-09-14T11:19:04.137Z,73.36
2018-09-14T11:20:04.064Z,72.26
2018-09-14T11:21:59.918Z,72.94
2018-09-14T11:22:59.900Z,73.84
2018-09-14T11:24:54.785Z,73.51
2018-09-14T11:25:54.748Z,73.55
2018-09-14T11:27:51.141Z,74.99
2018-09-14T11:28:51.102Z,75.09
2018-09-14T11:30:46.002Z,74.13
2018-09-14T11:31:45.952Z,73.36
2018-09-14T11:33:40.824Z,73.88
2018-09-14T11:34:40.806Z,72.63
2018-09-14T11:36:35.769Z,71.08
2018-09-14T11:37:35.669Z,71.08
2018-09-14T11:39:30.683Z,70.41
2018-09-14T11:40:30.657Z,70.02
2018-09-14T11:42:25.491Z,69.54
2018-09-14T11:43:25.377Z,70.21
2018-09-14T11:45:20.275Z,70.41
2018-09-14T11:46:20.223Z,70.12
2018-09-14T11:48:15.114Z,69.93
2018-09-14T11:49:15.084Z,68.99
2018-09-14T11:51:09.963Z,70.92
2018-09-14T11:52:09.942Z,72.56
2018-09-14T11:54:04.436Z,70.57
2018-09-14T11:55:04.392Z,70.28
2018-09-14T11:56:59.270Z,68.16
2018-09-14T11:57:59.243Z,68.35
2018-09-14T11:59:54.130Z,68.65
2018-09-14T12:00:54.097Z,68.42
2018-09-14T12:02:49.056Z,68.26
2018-09-14T12:03:48.948Z,68.55
2018-09-14T12:06:02.833Z,68.16
2018-09-14T12:07:02.807Z,68.74
2018-09-14T12:08:57.683Z,68.55
2018-09-14T12:09:57.660Z,69.29
2018-09-14T12:11:52.544Z,69.19
2018-09-14T12:12:52.516Z,68.52
2018-09-14T12:14:47.398Z,69.57
2018-09-14T12:15:47.375Z,68.71
2018-09-14T12:17:42.254Z,68.77
2018-09-14T12:18:42.236Z,69.45
2018-09-14T12:20:37.095Z,69.06
2018-09-14T12:21:37.081Z,68.77
2018-09-14T12:23:31.495Z,70.12
2018-09-14T12:24:31.465Z,70.31
2018-09-14T12:26:27.341Z,71.08
2018-09-14T12:27:27.320Z,71.37
2018-09-14T12:29:22.204Z,72.33
2018-09-14T12:30:22.175Z,71.95
2018-09-14T12:32:16.944Z,71.66
2018-09-14T12:33:16.920Z,71.85
2018-09-14T12:35:12.881Z,71.85
2018-09-14T12:36:12.777Z,72.05
2018-09-14T12:38:07.648Z,71.60
2018-09-14T12:39:07.622Z,71.79
2018-09-14T12:41:02.512Z,71.41
2018-09-14T12:42:02.481Z,71.50
2018-09-14T12:43:58.091Z,71.12
2018-09-14T12:44:58.060Z,71.12
2018-09-14T12:46:52.946Z,70.89
2018-09-14T12:47:52.919Z,70.41
2018-09-14T12:49:47.801Z,69.64
2018-09-14T12:50:47.779Z,69.83
2018-09-14T12:52:43.427Z,70.60
2018-09-14T12:53:43.408Z,70.50
2018-09-14T12:55:38.858Z,70.60
2018-09-14T12:56:38.255Z,70.21
2018-09-14T12:58:33.210Z,69.29
2018-09-14T12:59:33.099Z,69.77
2018-09-14T13:01:27.981Z,69.19
2018-09-14T13:02:27.958Z,68.71
2018-09-14T13:04:23.375Z,68.04
2018-09-14T13:05:23.286Z,68.68
2018-09-14T13:07:19.166Z,70.21
2018-09-14T13:08:19.141Z,70.60
2018-09-14T13:10:15.026Z,70.89
2018-09-14T13:11:14.999Z,71.81
2018-09-14T13:13:09.896Z,71.18
2018-09-14T13:14:09.845Z,70.60
2018-09-14T13:16:05.466Z,70.06
2018-09-14T13:17:05.441Z,70.02
2018-09-14T13:19:00.339Z,70.89
2018-09-14T13:20:00.302Z,70.89
2018-09-14T13:21:56.677Z,72.81
2018-09-14T13:22:56.651Z,71.85
2018-09-14T13:24:52.536Z,70.70
2018-09-14T13:25:52.504Z,70.41
2018-09-14T13:27:47.379Z,69.96
2018-09-14T13:28:47.358Z,69.29
2018-09-14T13:30:42.235Z,69.45
2018-09-14T13:31:42.217Z,69.45
2018-09-14T13:33:37.215Z,70.64
2018-09-14T13:34:37.073Z,68.99
2018-09-14T13:36:31.952Z,70.44
2018-09-14T13:37:31.923Z,69.96
2018-09-14T13:39:26.887Z,69.23
2018-09-14T13:40:26.782Z,68.65
2018-09-14T13:42:21.667Z,68.74
2018-09-14T13:43:21.638Z,68.93
2018-09-14T13:45:16.107Z,68.93
2018-09-14T13:46:16.080Z,68.65
2018-09-14T13:48:11.446Z,68.55
2018-09-14T13:49:11.426Z,67.97
2018-09-14T13:51:07.877Z,67.78
2018-09-14T13:52:07.775Z,68.74
2018-09-14T13:54:02.679Z,69.48
2018-09-14T13:55:02.632Z,70.25
2018-09-14T13:56:57.520Z,70.67
2018-09-14T13:57:57.490Z,69.64
2018-09-14T13:59:52.398Z,68.97
2018-09-14T14:00:52.349Z,67.85
2018-09-14T14:02:47.227Z,66.14
2018-09-14T14:03:47.204Z,65.17
2018-09-14T14:05:42.100Z,65.01
2018-09-14T14:06:42.052Z,65.08
2018-09-14T14:08:36.934Z,64.72
2018-09-14T14:09:36.963Z,64.24
2018-09-14T14:11:31.773Z,64.14
2018-09-14T14:12:31.730Z,64.14
2018-09-14T14:14:26.609Z,63.21
2018-09-14T14:15:26.581Z,64.21
2018-09-14T14:17:21.598Z,62.47
2018-09-14T14:18:21.450Z,61.89
2018-09-14T14:20:16.320Z,61.86
2018-09-14T14:21:16.304Z,61.86
2018-09-14T14:23:11.219Z,61.08
2018-09-14T14:24:11.148Z,60.99
2018-09-14T14:26:07.037Z,62.18
2018-09-14T14:27:07.010Z,60.82
2018-09-14T14:29:02.393Z,62.18
2018-09-14T14:30:02.365Z,61.95
2018-09-14T14:31:57.255Z,62.79
2018-09-14T14:32:57.241Z,62.70
2018-09-14T14:34:52.105Z,64.28
2018-09-14T14:35:52.081Z,64.28
2018-09-14T14:37:46.953Z,64.95
2018-09-14T14:38:46.942Z,64.47
2018-09-14T14:40:41.821Z,64.79
2018-09-14T14:41:41.796Z,64.53
2018-09-14T14:43:36.667Z,63.47
2018-09-14T14:44:36.647Z,63.56
2018-09-14T14:46:31.539Z,62.98
2018-09-14T14:47:31.504Z,63.18
2018-09-14T14:49:26.411Z,63.11
2018-09-14T14:50:26.362Z,62.53
2018-09-14T14:52:21.246Z,62.76
2018-09-14T14:53:21.219Z,61.69
2018-09-14T14:55:17.095Z,61.24
2018-09-14T14:56:17.072Z,60.75
2018-09-14T14:58:11.952Z,60.75
2018-09-14T14:59:11.941Z,60.78
2018-09-14T15:01:06.814Z,59.89
2018-09-14T15:02:06.790Z,59.98
2018-09-14T15:04:01.672Z,59.40
2018-09-14T15:05:01.646Z,59.89
2018-09-14T15:06:57.096Z,61.15
2018-09-14T15:07:56.809Z,60.08
2018-09-14T15:09:51.691Z,58.50
2018-09-14T15:10:51.726Z,59.40
2018-09-14T15:12:46.549Z,60.85
2018-09-14T15:13:46.582Z,59.98
2018-09-14T15:15:41.501Z,59.40
2018-09-14T15:16:41.406Z,60.37
2018-09-14T15:18:57.487Z,59.50
2018-09-14T15:19:57.459Z,59.31
2018-09-14T15:21:52.342Z,59.21
2018-09-14T15:22:52.324Z,59.79
2018-09-14T15:24:47.200Z,59.18
2018-09-14T15:25:47.178Z,59.08
2018-09-14T15:27:42.135Z,60.69
2018-09-14T15:28:42.083Z,61.73
2018-09-14T15:30:36.957Z,61.83
2018-09-14T15:31:36.884Z,61.70
2018-09-14T15:33:32.351Z,62.47
2018-09-14T15:34:31.753Z,62.60
2018-09-14T15:36:26.971Z,62.70
2018-09-14T15:37:26.946Z,62.31
2018-09-14T15:39:21.838Z,62.50
2018-09-14T15:40:21.809Z,62.31
2018-09-14T15:42:16.333Z,62.44
2018-09-14T15:43:16.311Z,61.86
2018-09-14T15:45:11.153Z,61.83
2018-09-14T15:46:11.112Z,62.31
2018-09-14T15:48:06.570Z,62.89
2018-09-14T15:49:05.779Z,63.37
2018-09-14T15:51:00.696Z,62.79
2018-09-14T15:52:00.566Z,62.79
2018-09-14T15:53:56.439Z,63.02
2018-09-14T15:54:56.407Z,63.79
2018-09-14T15:56:51.289Z,64.72